createdAt,value
2017-04-01T00:00:24.790Z,16.71
2017-04-01T00:01:34.986Z,16.7
2017-04-01T00:02:43.945Z,16.7
2017-04-01T00:03:53.807Z,16.71
2017-04-01T00:05:02.761Z,16.68
2017-04-01T00:06:12.333Z,16.66
2017-04-01T00:07:21.570Z,16.66
2017-04-01T00:08:31.766Z,16.67
2017-04-01T00:09:41.337Z,16.78
2017-04-01T00:10:52.223Z,16.68
2017-04-01T00:12:01.178Z,16.71
2017-04-01T00:13:12.639Z,16.67
2017-04-01T00:14:21.601Z,16.78
2017-04-01T00:15:32.289Z,16.75
2017-04-01T00:16:42.249Z,16.66
2017-04-01T00:17:52.178Z,16.68
2017-04-01T00:19:01.384Z,16.56
2017-04-01T00:20:10.431Z,16.53
2017-04-01T00:21:19.719Z,16.53
2017-04-01T00:22:29.006Z,16.56
2017-04-01T00:23:38.841Z,16.57
2017-04-01T00:24:48.052Z,16.56
2017-04-01T00:25:57.618Z,16.52
2017-04-01T00:27:07.388Z,16.52
2017-04-01T00:28:17.806Z,16.58
2017-04-01T00:29:26.920Z,16.57
2017-04-01T00:30:37.014Z,16.56
2017-04-01T00:31:46.151Z,16.53
2017-04-01T00:32:55.859Z,16.48
2017-04-01T00:34:04.818Z,16.45
2017-04-01T00:35:14.351Z,16.49
2017-04-01T00:36:23.558Z,16.48
2017-04-01T00:37:33.138Z,16.45
2017-04-01T00:38:42.139Z,16.38
2017-04-01T00:39:51.992Z,16.39
2017-04-01T00:41:00.948Z,16.41
2017-04-01T00:42:11.187Z,16.45
2017-04-01T00:43:20.147Z,16.39
2017-04-01T00:44:30.983Z,16.35
2017-04-01T00:45:39.950Z,16.43
2017-04-01T00:46:50.639Z,16.38
2017-04-01T00:47:59.846Z,16.33
2017-04-01T00:49:09.577Z,16.28
2017-04-01T00:50:18.532Z,16.3
2017-04-01T00:51:28.535Z,16.31
2017-04-01T00:52:37.706Z,16.35
2017-04-01T00:53:47.491Z,16.33
2017-04-01T00:54:57.057Z,16.3
2017-04-01T00:56:06.422Z,16.3
2017-04-01T00:57:15.849Z,16.27
2017-04-01T00:58:25.265Z,16.21
2017-04-01T00:59:35.101Z,16.27
2017-04-01T01:00:44.108Z,16.15
2017-04-01T01:01:53.661Z,16.2
2017-04-01T01:03:02.982Z,16.17
2017-04-01T01:04:12.461Z,16.12
2017-04-01T01:05:22.062Z,16.2
2017-04-01T01:06:32.137Z,16.2
2017-04-01T01:07:41.096Z,16.15
2017-04-01T01:08:51.219Z,16.11
2017-04-01T01:10:00.579Z,16.14
2017-04-01T01:11:11.005Z,16.12
2017-04-01T01:12:20.049Z,16.14
2017-04-01T01:13:29.918Z,16.11
2017-04-01T01:14:38.874Z,16.07
2017-04-01T01:15:47.834Z,16.15
2017-04-01T01:16:57.039Z,16.21
2017-04-01T01:18:05.995Z,16.2
2017-04-01T01:19:15.290Z,16.17
2017-04-01T01:20:24.263Z,16.12
2017-04-01T01:21:33.546Z,16.08
2017-04-01T01:22:42.756Z,16.05
2017-04-01T01:23:51.714Z,16.09
2017-04-01T01:25:00.668Z,15.97
2017-04-01T01:26:09.628Z,16.01
2017-04-01T01:27:18.676Z,16.01
2017-04-01T01:28:27.883Z,16.02
2017-04-01T01:29:36.841Z,16.04
2017-04-01T01:30:45.796Z,16.08
2017-04-01T01:31:54.757Z,15.97
2017-04-01T01:33:03.721Z,16.04
2017-04-01T01:34:12.928Z,15.97
2017-04-01T01:35:21.887Z,16.01
2017-04-01T01:36:31.183Z,16
2017-04-01T01:37:40.230Z,16.04
2017-04-01T01:38:49.193Z,15.92
2017-04-01T01:39:58.432Z,15.94
2017-04-01T01:41:07.399Z,15.97
2017-04-01T01:42:16.362Z,15.87
2017-04-01T01:43:25.319Z,15.86
2017-04-01T01:44:34.279Z,15.87
2017-04-01T01:45:43.495Z,15.87
2017-04-01T01:46:52.451Z,15.86
2017-04-01T01:48:01.525Z,15.89
2017-04-01T01:49:10.483Z,15.9
2017-04-01T01:50:19.440Z,15.89
2017-04-01T01:51:28.983Z,15.84
2017-04-01T01:52:37.945Z,15.8
2017-04-01T01:53:46.903Z,15.83
2017-04-01T01:54:55.946Z,15.83
2017-04-01T01:56:04.910Z,15.83
2017-04-01T01:57:14.672Z,15.84
2017-04-01T01:58:23.630Z,15.74
2017-04-01T01:59:32.591Z,15.76
2017-04-01T02:00:41.549Z,15.69
2017-04-01T02:01:50.513Z,15.74
2017-04-01T02:02:59.728Z,15.71
2017-04-01T02:04:08.693Z,15.69
2017-04-01T02:05:17.651Z,15.69
2017-04-01T02:06:26.607Z,15.69
2017-04-01T02:07:35.564Z,15.68
2017-04-01T02:08:44.770Z,15.69
2017-04-01T02:09:53.730Z,15.76
2017-04-01T02:11:02.688Z,15.69
2017-04-01T02:12:11.647Z,15.67
2017-04-01T02:13:20.612Z,15.68
2017-04-01T02:14:29.911Z,15.56
2017-04-01T02:15:38.870Z,15.6
2017-04-01T02:16:47.921Z,15.57
2017-04-01T02:17:56.881Z,15.59
2017-04-01T02:19:05.931Z,15.49
2017-04-01T02:20:15.190Z,15.46
2017-04-01T02:21:24.156Z,15.46
2017-04-01T02:22:33.438Z,15.51
2017-04-01T02:23:42.398Z,15.49
2017-04-01T02:24:51.441Z,15.53
2017-04-01T02:26:00.652Z,15.46
2017-04-01T02:27:09.610Z,15.47
2017-04-01T02:28:18.569Z,15.49
2017-04-01T02:29:27.537Z,15.47
2017-04-01T02:30:36.498Z,15.41
2017-04-01T02:31:45.755Z,15.49
2017-04-01T02:32:54.717Z,15.44
2017-04-01T02:34:03.674Z,15.41
2017-04-01T02:35:12.636Z,15.46
2017-04-01T02:36:21.597Z,15.43
2017-04-01T02:37:30.806Z,15.38
2017-04-01T02:38:39.767Z,15.35
2017-04-01T02:39:48.728Z,15.35
2017-04-01T02:40:57.680Z,15.31
2017-04-01T02:42:06.639Z,15.2
2017-04-01T02:43:15.846Z,15.25
2017-04-01T02:44:24.894Z,15.2
2017-04-01T02:45:33.858Z,15.17
2017-04-01T02:46:42.815Z,15.16
2017-04-01T02:47:51.800Z,15.11
2017-04-01T02:49:01.057Z,15.06
2017-04-01T02:50:10.016Z,15.09
2017-04-01T02:51:19.069Z,15.01
2017-04-01T02:52:28.025Z,15.06
2017-04-01T02:53:36.985Z,14.99
2017-04-01T02:54:46.196Z,15.09
2017-04-01T02:55:55.150Z,15.02
2017-04-01T02:57:04.105Z,15.02
2017-04-01T02:58:13.063Z,15.03
2017-04-01T02:59:22.026Z,15.01
2017-04-01T03:00:31.558Z,15.01
2017-04-01T03:01:40.521Z,15.07
2017-04-01T03:02:49.480Z,14.95
2017-04-01T03:03:58.436Z,15.07
2017-04-01T03:05:07.407Z,14.95
2017-04-01T03:06:16.616Z,14.91
2017-04-01T03:07:25.578Z,15.02
2017-04-01T03:08:34.537Z,14.95
2017-04-01T03:09:43.497Z,14.94
2017-04-01T03:10:52.453Z,14.94
2017-04-01T03:12:01.661Z,15.02
2017-04-01T03:13:10.616Z,15.03
2017-04-01T03:14:19.579Z,14.99
2017-04-01T03:15:28.538Z,15.02
2017-04-01T03:16:37.493Z,15.02
2017-04-01T03:17:46.700Z,15.06
2017-04-01T03:18:55.657Z,14.99
2017-04-01T03:20:04.702Z,15.02
2017-04-01T03:21:13.664Z,15.02
2017-04-01T03:22:22.625Z,15.01
2017-04-01T03:23:31.830Z,15.03
2017-04-01T03:24:40.790Z,15.03
2017-04-01T03:25:49.746Z,15.06
2017-04-01T03:26:58.736Z,15.02
2017-04-01T03:28:07.697Z,15.07
2017-04-01T03:29:16.906Z,14.95
2017-04-01T03:30:25.861Z,14.99
2017-04-01T03:31:34.816Z,15.03
2017-04-01T03:32:43.804Z,14.98
2017-04-01T03:33:52.761Z,14.99
2017-04-01T03:35:01.969Z,14.98
2017-04-01T03:36:10.925Z,15.01
2017-04-01T03:37:19.879Z,14.98
2017-04-01T03:38:29.167Z,14.98
2017-04-01T03:39:38.125Z,14.94
2017-04-01T03:40:47.338Z,14.95
2017-04-01T03:41:56.511Z,14.92
2017-04-01T03:43:05.914Z,14.96
2017-04-01T03:44:15.128Z,14.91
2017-04-01T03:45:24.093Z,14.83
2017-04-01T03:46:33.622Z,14.92
2017-04-01T03:47:42.583Z,14.94
2017-04-01T03:48:51.546Z,14.96
2017-04-01T03:50:00.507Z,14.83
2017-04-01T03:51:09.554Z,14.86
2017-04-01T03:52:18.817Z,14.81
2017-04-01T03:53:27.781Z,14.81
2017-04-01T03:54:36.739Z,14.84
2017-04-01T03:55:45.701Z,14.83
2017-04-01T03:56:54.657Z,14.83
2017-04-01T03:58:03.661Z,14.81
2017-04-01T03:59:12.625Z,14.88
2017-04-01T04:00:21.577Z,14.84
2017-04-01T04:01:30.537Z,14.8
2017-04-01T04:02:39.493Z,14.8
2017-04-01T04:03:48.502Z,14.81
2017-04-01T04:04:57.457Z,14.69
2017-04-01T04:06:06.414Z,14.8
2017-04-01T04:07:15.375Z,14.84
2017-04-01T04:08:24.335Z,14.78
2017-04-01T04:09:33.294Z,14.7
2017-04-01T04:10:42.250Z,14.75
2017-04-01T04:11:51.207Z,14.8
2017-04-01T04:13:00.204Z,14.69
2017-04-01T04:14:09.162Z,14.7
2017-04-01T04:15:18.118Z,14.7
2017-04-01T04:16:27.081Z,14.7
2017-04-01T04:17:36.039Z,14.7
2017-04-01T04:18:44.993Z,14.72
2017-04-01T04:19:53.953Z,14.72
2017-04-01T04:21:02.965Z,14.69
2017-04-01T04:22:11.924Z,14.7
2017-04-01T04:23:20.970Z,14.7
2017-04-01T04:24:29.927Z,14.72
2017-04-01T04:25:38.894Z,14.7
2017-04-01T04:26:47.851Z,14.7
2017-04-01T04:27:56.805Z,14.77
2017-04-01T04:29:05.757Z,14.72
2017-04-01T04:30:14.713Z,14.65
2017-04-01T04:31:23.667Z,14.61
2017-04-01T04:32:32.712Z,14.62
2017-04-01T04:33:41.670Z,14.65
2017-04-01T04:34:50.670Z,14.62
2017-04-01T04:35:59.715Z,14.65
2017-04-01T04:37:08.681Z,14.61
2017-04-01T04:38:17.689Z,14.68
2017-04-01T04:39:26.641Z,14.65
2017-04-01T04:40:35.603Z,14.68
2017-04-01T04:41:44.574Z,14.62
2017-04-01T04:42:53.538Z,14.62
2017-04-01T04:44:02.542Z,14.65
2017-04-01T04:45:11.505Z,14.61
2017-04-01T04:46:20.469Z,14.64
2017-04-01T04:47:29.426Z,14.61
2017-04-01T04:48:38.478Z,14.61
2017-04-01T04:49:47.470Z,14.68
2017-04-01T04:50:56.427Z,14.69
2017-04-01T04:52:05.385Z,14.6
2017-04-01T04:53:14.342Z,14.69
2017-04-01T04:54:23.301Z,14.6
2017-04-01T04:55:32.311Z,14.6
2017-04-01T04:56:41.268Z,14.57
2017-04-01T04:57:50.228Z,14.61
2017-04-01T04:58:59.187Z,14.65
2017-04-01T05:00:08.474Z,14.68
2017-04-01T05:01:17.442Z,14.58
2017-04-01T05:02:26.401Z,14.61
2017-04-01T05:03:35.355Z,14.61
2017-04-01T05:04:44.310Z,14.61
2017-04-01T05:05:53.267Z,14.58
2017-04-01T05:07:02.551Z,14.52
2017-04-01T05:08:11.507Z,14.61
2017-04-01T05:09:20.459Z,14.6
2017-04-01T05:10:29.412Z,14.57
2017-04-01T05:11:38.375Z,14.57
2017-04-01T05:12:47.384Z,14.61
2017-04-01T05:13:56.341Z,14.65
2017-04-01T05:15:05.295Z,14.61
2017-04-01T05:16:14.254Z,14.57
2017-04-01T05:17:23.207Z,14.57
2017-04-01T05:18:32.215Z,14.52
2017-04-01T05:19:41.183Z,14.61
2017-04-01T05:20:50.144Z,14.62
2017-04-01T05:21:59.105Z,14.64
2017-04-01T05:23:08.190Z,14.57
2017-04-01T05:24:17.148Z,14.65
2017-04-01T05:25:26.113Z,14.61
2017-04-01T05:26:35.072Z,14.6
2017-04-01T05:27:44.029Z,14.62
2017-04-01T05:28:52.986Z,14.61
2017-04-01T05:30:01.948Z,14.62
2017-04-01T05:31:10.910Z,14.64
2017-04-01T05:32:19.883Z,14.65
2017-04-01T05:33:29.442Z,14.68
2017-04-01T05:34:38.948Z,14.64
2017-04-01T05:35:47.906Z,14.61
2017-04-01T05:36:56.862Z,14.6
2017-04-01T05:38:05.817Z,14.65
2017-04-01T05:39:14.775Z,14.55
2017-04-01T05:40:23.734Z,14.58
2017-04-01T05:41:32.865Z,14.55
2017-04-01T05:42:41.831Z,14.62
2017-04-01T05:43:50.880Z,14.62
2017-04-01T05:44:59.841Z,14.61
2017-04-01T05:46:08.831Z,14.62
2017-04-01T05:47:17.794Z,14.62
2017-04-01T05:48:26.842Z,14.68
2017-04-01T05:49:35.801Z,14.6
2017-04-01T05:50:44.757Z,14.61
2017-04-01T05:51:53.713Z,14.65
2017-04-01T05:53:02.674Z,14.62
2017-04-01T05:54:11.625Z,14.58
2017-04-01T05:55:20.583Z,14.57
2017-04-01T05:56:29.548Z,14.47
2017-04-01T05:57:38.520Z,14.51
2017-04-01T05:58:47.476Z,14.45
2017-04-01T05:59:56.437Z,14.51
2017-04-01T06:01:05.578Z,14.47
2017-04-01T06:02:14.575Z,14.46
2017-04-01T06:03:23.543Z,14.45
2017-04-01T06:04:32.495Z,14.4
2017-04-01T06:05:41.451Z,14.39
2017-04-01T06:06:50.505Z,14.43
2017-04-01T06:07:59.459Z,14.46
2017-04-01T06:09:08.504Z,14.45
2017-04-01T06:10:17.514Z,14.39
2017-04-01T06:11:26.482Z,14.42
2017-04-01T06:12:37.979Z,14.37
2017-04-01T06:13:48.536Z,14.54
2017-04-01T06:14:57.499Z,14.46
2017-04-01T06:16:06.455Z,14.47
2017-04-01T06:17:15.408Z,14.58
2017-04-01T06:18:24.460Z,14.61
2017-04-01T06:19:33.419Z,14.58
2017-04-01T06:20:42.369Z,14.61
2017-04-01T06:21:51.375Z,14.6
2017-04-01T06:23:00.338Z,14.69
2017-04-01T06:24:09.301Z,14.69
2017-04-01T06:25:19.625Z,14.68
2017-04-01T06:26:28.580Z,14.81
2017-04-01T06:27:37.590Z,14.81
2017-04-01T06:28:46.542Z,14.81
2017-04-01T06:29:55.503Z,14.83
2017-04-01T06:31:04.463Z,14.89
2017-04-01T06:32:13.425Z,14.81
2017-04-01T06:33:22.383Z,14.95
2017-04-01T06:34:31.481Z,14.98
2017-04-01T06:35:40.487Z,15.01
2017-04-01T06:36:49.554Z,15.02
2017-04-01T06:37:58.574Z,15.02
2017-04-01T06:39:07.645Z,14.99
2017-04-01T06:40:16.799Z,15.02
2017-04-01T06:41:26.030Z,15.07
2017-04-01T06:42:35.107Z,15.02
2017-04-01T06:43:44.280Z,15.13
2017-04-01T06:44:53.328Z,15.19
2017-04-01T06:46:02.289Z,15.17
2017-04-01T06:47:11.261Z,15.25
2017-04-01T06:48:20.982Z,15.23
2017-04-01T06:49:30.118Z,15.21
2017-04-01T06:50:39.088Z,15.27
2017-04-01T06:51:48.229Z,15.28
2017-04-01T06:52:57.365Z,15.35
2017-04-01T06:54:06.321Z,15.39
2017-04-01T06:55:15.557Z,15.46
2017-04-01T06:56:24.528Z,15.44
2017-04-01T06:57:33.619Z,15.44
2017-04-01T06:58:42.599Z,15.47
2017-04-01T06:59:51.557Z,15.6
2017-04-01T07:01:00.615Z,15.59
2017-04-01T07:02:09.598Z,15.56
2017-04-01T07:03:18.581Z,15.54
2017-04-01T07:04:27.559Z,15.57
2017-04-01T07:05:36.543Z,15.67
2017-04-01T07:06:45.567Z,15.65
2017-04-01T07:07:54.611Z,15.69
2017-04-01T07:09:03.591Z,15.68
2017-04-01T07:10:12.584Z,15.71
2017-04-01T07:11:21.567Z,15.83
2017-04-01T07:12:30.551Z,15.76
2017-04-01T07:13:39.587Z,15.8
2017-04-01T07:14:48.566Z,15.92
2017-04-01T07:15:57.548Z,15.96
2017-04-01T07:17:06.532Z,16.04
2017-04-01T07:18:15.516Z,16.01
2017-04-01T07:19:24.544Z,16.04
2017-04-01T07:20:33.532Z,16.05
2017-04-01T07:21:42.512Z,15.96
2017-04-01T07:22:51.590Z,16.2
2017-04-01T07:24:00.583Z,16.17
2017-04-01T07:25:09.620Z,16.21
2017-04-01T07:26:18.961Z,16.17
2017-04-01T07:27:27.940Z,16.21
2017-04-01T07:28:36.925Z,16.14
2017-04-01T07:29:45.906Z,16.08
2017-04-01T07:30:54.944Z,16.21
2017-04-01T07:32:03.922Z,16.15
2017-04-01T07:33:12.903Z,16.2
2017-04-01T07:34:21.884Z,16.25
2017-04-01T07:35:31.197Z,16.33
2017-04-01T07:36:40.178Z,16.3
2017-04-01T07:37:49.250Z,16.28
2017-04-01T07:38:58.229Z,16.33
2017-04-01T07:40:07.210Z,16.39
2017-04-01T07:41:16.197Z,16.33
2017-04-01T07:42:25.220Z,16.43
2017-04-01T07:43:34.202Z,16.49
2017-04-01T07:44:43.187Z,16.57
2017-04-01T07:45:52.170Z,16.53
2017-04-01T07:47:01.151Z,16.6
2017-04-01T07:48:10.135Z,16.66
2017-04-01T07:49:19.123Z,16.73
2017-04-01T07:50:28.199Z,16.66
2017-04-01T07:51:37.182Z,16.71
2017-04-01T07:52:46.169Z,16.79
2017-04-01T07:53:55.202Z,16.71
2017-04-01T07:55:04.179Z,16.81
2017-04-01T07:56:13.164Z,16.89
2017-04-01T07:57:22.232Z,16.94
2017-04-01T07:58:31.218Z,16.97
2017-04-01T07:59:40.449Z,17
2017-04-01T08:00:49.438Z,17.11
2017-04-01T08:01:58.417Z,17.16
2017-04-01T08:03:07.403Z,17.12
2017-04-01T08:04:16.387Z,17.18
2017-04-01T08:05:25.616Z,17.28
2017-04-01T08:06:34.612Z,17.3
2017-04-01T08:07:43.596Z,17.36
2017-04-01T08:08:52.584Z,17.36
2017-04-01T08:10:01.567Z,17.46
2017-04-01T08:11:10.805Z,17.49
2017-04-01T08:12:19.789Z,17.52
2017-04-01T08:13:28.770Z,17.55
2017-04-01T08:14:37.760Z,17.58
2017-04-01T08:15:46.754Z,17.62
2017-04-01T08:16:55.995Z,17.63
2017-04-01T08:18:04.985Z,17.7
2017-04-01T08:19:13.972Z,17.75
2017-04-01T08:20:22.959Z,17.77
2017-04-01T08:21:31.941Z,17.78
2017-04-01T08:22:41.172Z,17.87
2017-04-01T08:23:50.151Z,17.87
2017-04-01T08:24:59.136Z,17.97
2017-04-01T08:26:08.118Z,18
2017-04-01T08:27:17.101Z,18.05
2017-04-01T08:28:26.335Z,18.03
2017-04-01T08:29:35.310Z,18.11
2017-04-01T08:30:44.298Z,18.1
2017-04-01T08:31:53.869Z,18.26
2017-04-01T08:33:02.857Z,18.25
2017-04-01T08:34:12.090Z,18.23
2017-04-01T08:35:21.077Z,18.35
2017-04-01T08:36:30.060Z,18.41
2017-04-01T08:37:39.039Z,18.33
2017-04-01T08:38:48.022Z,18.36
2017-04-01T08:39:57.260Z,18.44
2017-04-01T08:41:06.253Z,18.48
2017-04-01T08:42:15.243Z,18.54
2017-04-01T08:43:24.225Z,18.55
2017-04-01T08:44:33.214Z,18.54
2017-04-01T08:45:42.450Z,18.67
2017-04-01T08:46:51.429Z,18.51
2017-04-01T08:48:00.414Z,18.58
2017-04-01T08:49:09.400Z,18.65
2017-04-01T08:50:18.383Z,18.7
2017-04-01T08:51:27.626Z,18.7
2017-04-01T08:52:36.615Z,18.73
2017-04-01T08:53:45.603Z,18.76
2017-04-01T08:54:54.599Z,18.78
2017-04-01T08:56:03.589Z,18.75
2017-04-01T08:57:12.822Z,18.82
2017-04-01T08:58:21.809Z,18.76
2017-04-01T08:59:30.801Z,18.78
2017-04-01T09:00:39.786Z,18.91
2017-04-01T09:01:48.772Z,18.88
2017-04-01T09:02:58.008Z,18.92
2017-04-01T09:04:06.995Z,19.04
2017-04-01T09:05:15.977Z,19.06
2017-04-01T09:06:24.964Z,19.14
2017-04-01T09:07:33.951Z,19.19
2017-04-01T09:08:43.201Z,19.14
2017-04-01T09:09:52.519Z,19.11
2017-04-01T09:11:01.515Z,19.14
2017-04-01T09:12:10.555Z,19.23
2017-04-01T09:13:19.541Z,19.28
2017-04-01T09:14:28.777Z,19.29
2017-04-01T09:15:37.758Z,19.33
2017-04-01T09:16:46.749Z,19.46
2017-04-01T09:17:55.727Z,19.43
2017-04-01T09:19:04.817Z,19.46
2017-04-01T09:20:14.727Z,19.48
2017-04-01T09:21:43.121Z,19.55
2017-04-01T09:22:52.103Z,19.54
2017-04-01T09:24:01.096Z,19.63
2017-04-01T09:25:10.334Z,19.58
2017-04-01T09:26:19.316Z,19.65
2017-04-01T09:27:28.382Z,19.66
2017-04-01T09:28:37.362Z,19.62
2017-04-01T09:29:46.346Z,19.61
2017-04-01T09:30:55.627Z,19.59
2017-04-01T09:32:04.617Z,19.63
2017-04-01T09:33:13.599Z,19.68
2017-04-01T09:34:22.590Z,19.78
2017-04-01T09:35:31.574Z,19.69
2017-04-01T09:36:40.861Z,19.62
2017-04-01T09:37:49.842Z,19.77
2017-04-01T09:38:58.822Z,19.81
2017-04-01T09:40:07.805Z,19.76
2017-04-01T09:41:16.775Z,19.81
2017-04-01T09:42:26.000Z,19.87
2017-04-01T09:43:35.558Z,19.87
2017-04-01T09:44:44.522Z,19.87
2017-04-01T09:45:53.503Z,19.98
2017-04-01T09:47:02.787Z,20.02
2017-04-01T09:48:12.056Z,20.03
2017-04-01T09:49:21.013Z,20.05
2017-04-01T09:50:29.970Z,19.98
2017-04-01T09:51:38.945Z,20.05
2017-04-01T09:52:47.926Z,20.08
2017-04-01T09:53:57.192Z,20.16
2017-04-01T09:55:06.180Z,20.14
2017-04-01T09:56:15.146Z,20.13
2017-04-01T09:57:24.103Z,20.29
2017-04-01T09:58:33.069Z,20.36
2017-04-01T09:59:42.335Z,20.43
2017-04-01T10:00:51.296Z,20.43
2017-04-01T10:02:00.348Z,20.47
2017-04-01T10:03:09.308Z,20.5
2017-04-01T10:04:18.354Z,20.58
2017-04-01T10:05:27.618Z,20.57
2017-04-01T10:06:36.577Z,20.62
2017-04-01T10:07:45.538Z,20.7
2017-04-01T10:08:54.501Z,20.76
2017-04-01T10:10:03.461Z,20.77
2017-04-01T10:11:12.677Z,20.84
2017-04-01T10:12:21.962Z,20.89
2017-04-01T10:13:30.923Z,20.89
2017-04-01T10:14:39.880Z,20.89
2017-04-01T10:15:48.843Z,20.94
2017-04-01T10:16:58.101Z,20.95
2017-04-01T10:18:07.066Z,20.94
2017-04-01T10:19:16.025Z,21.09
2017-04-01T10:20:24.993Z,21.13
2017-04-01T10:21:33.967Z,21.17
2017-04-01T10:22:43.301Z,21.13
2017-04-01T10:23:52.263Z,21.14
2017-04-01T10:25:01.222Z,21.17
2017-04-01T10:26:10.193Z,21.22
2017-04-01T10:27:19.165Z,21.25
2017-04-01T10:28:28.761Z,21.21
2017-04-01T10:29:37.722Z,21.25
2017-04-01T10:30:47.006Z,21.27
2017-04-01T10:31:55.977Z,21.35
2017-04-01T10:33:04.945Z,21.37
2017-04-01T10:34:14.297Z,21.43
2017-04-01T10:35:23.259Z,21.43
2017-04-01T10:36:32.227Z,21.5
2017-04-01T10:37:41.193Z,21.56
2017-04-01T10:38:50.159Z,21.59
2017-04-01T10:39:59.512Z,21.64
2017-04-01T10:41:08.484Z,21.64
2017-04-01T10:42:17.448Z,21.56
2017-04-01T10:43:26.443Z,21.67
2017-04-01T10:44:35.857Z,21.61
2017-04-01T10:45:45.120Z,21.62
2017-04-01T10:46:54.166Z,21.58
2017-04-01T10:48:03.133Z,21.75
2017-04-01T10:49:12.186Z,21.74
2017-04-01T10:50:21.147Z,21.65
2017-04-01T10:51:30.412Z,21.74
2017-04-01T10:52:39.372Z,21.77
2017-04-01T10:53:48.334Z,21.77
2017-04-01T10:54:57.292Z,21.84
2017-04-01T10:56:06.255Z,21.82
2017-04-01T10:57:15.518Z,21.88
2017-04-01T10:58:24.488Z,21.92
2017-04-01T10:59:33.457Z,21.91
2017-04-01T11:00:42.429Z,21.96
2017-04-01T11:01:51.393Z,21.98
2017-04-01T11:03:00.646Z,22.06
2017-04-01T11:04:09.698Z,22.02
2017-04-01T11:05:18.662Z,22.03
2017-04-01T11:06:27.643Z,22.18
2017-04-01T11:07:36.603Z,22.12
2017-04-01T11:08:45.868Z,22.1
2017-04-01T11:09:54.830Z,22.15
2017-04-01T11:11:03.801Z,22.15
2017-04-01T11:12:12.763Z,22.17
2017-04-01T11:13:21.725Z,22.22
2017-04-01T11:14:31.775Z,22.28
2017-04-01T11:15:42.164Z,22.3
2017-04-01T11:16:55.783Z,22.35
2017-04-01T11:18:12.610Z,22.39
2017-04-01T11:19:27.058Z,22.37
2017-04-01T11:20:40.415Z,22.37
2017-04-01T11:21:50.820Z,22.42
2017-04-01T11:23:01.225Z,22.37
2017-04-01T11:24:11.624Z,22.37
2017-04-01T11:25:22.021Z,22.45
2017-04-01T11:26:32.509Z,22.43
2017-04-01T11:27:42.899Z,22.47
2017-04-01T11:28:52.694Z,22.42
2017-04-01T11:30:03.217Z,22.45
2017-04-01T11:31:17.541Z,22.43
2017-04-01T11:32:30.559Z,22.43
2017-04-01T11:33:44.443Z,22.55
2017-04-01T11:34:54.278Z,22.62
2017-04-01T11:36:04.651Z,22.54
2017-04-01T11:37:15.071Z,22.58
2017-04-01T11:38:25.481Z,22.6
2017-04-01T11:39:36.125Z,22.64
2017-04-01T11:40:46.522Z,22.67
2017-04-01T11:41:56.916Z,22.65
2017-04-01T11:43:06.963Z,22.72
2017-04-01T11:44:16.314Z,22.75
2017-04-01T11:45:26.048Z,22.73
2017-04-01T11:46:35.072Z,22.72
2017-04-01T11:47:44.194Z,22.67
2017-04-01T11:48:53.519Z,22.65
2017-04-01T11:50:02.490Z,22.85
2017-04-01T11:51:11.597Z,22.85
2017-04-01T11:52:20.569Z,22.85
2017-04-01T11:53:29.532Z,22.76
2017-04-01T11:54:38.800Z,22.68
2017-04-01T11:55:48.204Z,22.7
2017-04-01T11:56:57.169Z,22.79
2017-04-01T11:58:06.166Z,22.8
2017-04-01T11:59:15.260Z,22.85
2017-04-01T12:00:24.619Z,22.8
2017-04-01T12:01:33.773Z,22.86
2017-04-01T12:02:42.768Z,22.86
2017-04-01T12:03:51.920Z,22.76
2017-04-01T12:05:01.056Z,22.83
2017-04-01T12:06:10.391Z,22.76
2017-04-01T12:07:19.595Z,22.82
2017-04-01T12:08:28.602Z,22.82
2017-04-01T12:09:37.660Z,22.77
2017-04-01T12:10:46.783Z,22.91
2017-04-01T12:11:56.717Z,22.77
2017-04-01T12:13:05.678Z,22.85
2017-04-01T12:14:15.425Z,22.86
2017-04-01T12:15:25.399Z,22.92
2017-04-01T12:16:34.550Z,23.01
2017-04-01T12:17:43.968Z,22.94
2017-04-01T12:18:53.359Z,22.95
2017-04-01T12:20:02.664Z,23.01
2017-04-01T12:21:12.058Z,23
2017-04-01T12:22:22.704Z,22.91
2017-04-01T12:23:35.454Z,23.01
2017-04-01T12:24:47.565Z,23.01
2017-04-01T12:25:56.533Z,23.02
2017-04-01T12:27:05.498Z,23.05
2017-04-01T12:28:14.462Z,23.04
2017-04-01T12:29:23.675Z,23.09
2017-04-01T12:30:32.729Z,23.12
2017-04-01T12:31:41.695Z,23.04
2017-04-01T12:32:50.663Z,23.13
2017-04-01T12:33:59.621Z,23.13
2017-04-01T12:35:08.985Z,23.13
2017-04-01T12:36:17.952Z,23.16
2017-04-01T12:37:26.919Z,23.17
2017-04-01T12:38:35.885Z,23.09
2017-04-01T12:39:44.849Z,23.12
2017-04-01T12:40:54.113Z,23.12
2017-04-01T12:42:03.078Z,23.12
2017-04-01T12:43:12.215Z,23.04
2017-04-01T12:44:21.279Z,23.05
2017-04-01T12:45:30.299Z,23.01
2017-04-01T12:46:39.579Z,23.07
2017-04-01T12:47:48.668Z,23.12
2017-04-01T12:48:57.632Z,23.12
2017-04-01T12:50:06.683Z,23.12
2017-04-01T12:51:15.709Z,23.09
2017-04-01T12:52:24.970Z,23.12
2017-04-01T12:53:34.029Z,23.12
2017-04-01T12:54:43.094Z,23.12
2017-04-01T12:55:52.142Z,23.17
2017-04-01T12:57:01.270Z,23.2
2017-04-01T12:58:10.481Z,23.16
2017-04-01T12:59:19.776Z,23.16
2017-04-01T13:00:28.829Z,23.17
2017-04-01T13:01:37.836Z,23.16
2017-04-01T13:02:47.349Z,23.19
2017-04-01T13:03:56.786Z,23.16
2017-04-01T13:05:05.843Z,23.15
2017-04-01T13:06:15.022Z,23.22
2017-04-01T13:07:24.274Z,23.19
2017-04-01T13:08:33.593Z,23.19
2017-04-01T13:09:43.038Z,23.15
2017-04-01T13:10:52.126Z,23.13
2017-04-01T13:12:01.237Z,23.19
2017-04-01T13:13:10.627Z,23.16
2017-04-01T13:14:20.114Z,23.25
2017-04-01T13:15:30.821Z,23.19
2017-04-01T13:16:41.858Z,23.22
2017-04-01T13:17:51.687Z,23.32
2017-04-01T13:19:01.092Z,23.25
2017-04-01T13:20:10.350Z,23.23
2017-04-01T13:21:19.686Z,23.27
2017-04-01T13:22:28.998Z,23.27
2017-04-01T13:23:37.974Z,23.25
2017-04-01T13:24:46.936Z,23.28
2017-04-01T13:25:55.899Z,23.19
2017-04-01T13:27:05.163Z,23.19
2017-04-01T13:28:14.130Z,23.19
2017-04-01T13:29:23.096Z,23.2
2017-04-01T13:30:32.149Z,23.19
2017-04-01T13:31:41.112Z,23.17
2017-04-01T13:32:50.385Z,23.19
2017-04-01T13:33:59.348Z,23.13
2017-04-01T13:35:08.333Z,23.12
2017-04-01T13:36:17.295Z,23.16
2017-04-01T13:37:26.590Z,23.19
2017-04-01T13:38:36.176Z,23.2
2017-04-01T13:39:45.139Z,23.2
2017-04-01T13:40:54.101Z,23.2
2017-04-01T13:42:03.084Z,23.23
2017-04-01T13:43:12.050Z,23.19
2017-04-01T13:44:21.320Z,23.19
2017-04-01T13:45:30.309Z,23.28
2017-04-01T13:46:39.279Z,23.28
2017-04-01T13:47:48.294Z,23.31
2017-04-01T13:48:57.256Z,23.27
2017-04-01T13:50:06.527Z,23.27
2017-04-01T13:51:15.529Z,23.25
2017-04-01T13:52:24.494Z,23.33
2017-04-01T13:53:33.456Z,23.22
2017-04-01T13:54:42.418Z,23.23
2017-04-01T13:55:51.681Z,23.19
2017-04-01T13:57:00.659Z,23.13
2017-04-01T13:58:09.639Z,23.19
2017-04-01T13:59:18.607Z,23.16
2017-04-01T14:00:27.574Z,23.15
2017-04-01T14:01:36.841Z,23.12
2017-04-01T14:02:45.851Z,23.07
2017-04-01T14:03:54.810Z,23.05
2017-04-01T14:05:03.821Z,23.01
2017-04-01T14:06:12.806Z,23.1
2017-04-01T14:07:22.075Z,23.05
2017-04-01T14:08:31.040Z,23.01
2017-04-01T14:09:40.002Z,23.1
2017-04-01T14:10:48.963Z,23.07
2017-04-01T14:11:57.930Z,23.12
2017-04-01T14:13:07.144Z,23.09
2017-04-01T14:14:16.106Z,23.05
2017-04-01T14:15:25.074Z,23.04
2017-04-01T14:16:34.038Z,22.98
2017-04-01T14:17:43.006Z,23
2017-04-01T14:18:52.370Z,23.12
2017-04-01T14:20:01.342Z,23.04
2017-04-01T14:21:10.303Z,23.09
2017-04-01T14:22:19.293Z,22.94
2017-04-01T14:23:28.261Z,23.1
2017-04-01T14:24:37.525Z,23.1
2017-04-01T14:25:46.495Z,22.97
2017-04-01T14:26:55.462Z,22.97
2017-04-01T14:28:04.427Z,22.94
2017-04-01T14:29:13.390Z,23.01
2017-04-01T14:30:22.658Z,23.07
2017-04-01T14:31:31.626Z,23.01
2017-04-01T14:32:40.688Z,23.01
2017-04-01T14:33:49.664Z,23.05
2017-04-01T14:34:58.719Z,23.04
2017-04-01T14:36:07.980Z,23.04
2017-04-01T14:37:16.989Z,23.04
2017-04-01T14:38:25.975Z,23.04
2017-04-01T14:39:34.948Z,22.98
2017-04-01T14:40:43.916Z,23.04
2017-04-01T14:41:53.178Z,23.04
2017-04-01T14:43:02.153Z,23.01
2017-04-01T14:44:11.132Z,23.05
2017-04-01T14:45:20.094Z,23.02
2017-04-01T14:46:29.159Z,23.01
2017-04-01T14:47:38.422Z,22.97
2017-04-01T14:48:47.476Z,23.01
2017-04-01T14:49:56.504Z,22.97
2017-04-01T14:51:05.474Z,23.1
2017-04-01T14:52:14.434Z,23
2017-04-01T14:53:23.700Z,22.91
2017-04-01T14:54:32.667Z,22.95